createdAt,value
2022-08-19T00:03:00.476Z,25.79
2022-08-19T00:07:04.404Z,25.74
2022-08-19T00:11:09.573Z,25.65
2022-08-19T00:15:23.535Z,25.55
2022-08-19T00:19:27.114Z,25.51
2022-08-19T00:23:30.464Z,25.48
2022-08-19T00:27:35.717Z,25.44
2022-08-19T00:31:38.944Z,25.38
2022-08-19T00:35:42.178Z,25.34
2022-08-19T00:39:45.829Z,25.29
2022-08-19T00:44:06.333Z,25.21
2022-08-19T00:48:14.874Z,25.15
2022-08-19T00:52:23.136Z,25.07
2022-08-19T00:56:27.470Z,24.99
2022-08-19T01:00:37.578Z,24.91
2022-08-19T01:04:40.925Z,24.85
2022-08-19T01:08:44.088Z,24.80
2022-08-19T01:12:48.355Z,24.77
2022-08-19T01:16:55.517Z,24.77
2022-08-19T01:21:01.740Z,24.78
2022-08-19T01:25:09.975Z,24.76
2022-08-19T01:29:18.419Z,24.73
2022-08-19T01:33:23.631Z,24.65
2022-08-19T01:37:27.231Z,24.62
2022-08-19T01:41:31.878Z,24.58
2022-08-19T01:45:38.618Z,24.56
2022-08-19T01:49:41.793Z,24.55
2022-08-19T01:53:44.972Z,24.52
2022-08-19T01:57:52.689Z,24.51
2022-08-19T02:01:56.253Z,24.46
2022-08-19T02:06:01.286Z,24.35
2022-08-19T02:10:09.418Z,24.24
2022-08-19T02:14:17.313Z,24.19
2022-08-19T02:18:20.596Z,24.13
2022-08-19T02:22:31.092Z,24.12
2022-08-19T02:26:34.673Z,24.11
2022-08-19T02:30:39.435Z,24.05
2022-08-19T02:34:42.722Z,24.00
2022-08-19T02:38:47.680Z,23.98
2022-08-19T02:42:58.960Z,23.95
2022-08-19T02:47:04.088Z,23.90
2022-08-19T02:51:07.402Z,23.88
2022-08-19T02:55:11.419Z,23.92
2022-08-19T02:59:14.829Z,23.95
2022-08-19T03:03:19.907Z,23.98
2022-08-19T03:07:23.515Z,23.94
2022-08-19T03:11:29.299Z,23.84
2022-08-19T03:15:32.732Z,23.80
2022-08-19T03:19:37.424Z,23.77
2022-08-19T03:23:41.520Z,23.73
2022-08-19T03:27:45.115Z,23.67
2022-08-19T03:31:52.482Z,23.65
2022-08-19T03:36:06.481Z,23.59
2022-08-19T03:40:10.527Z,23.52
2022-08-19T03:44:21.897Z,23.49
2022-08-19T03:48:25.428Z,23.39
2022-08-19T03:52:29.862Z,23.37
2022-08-19T03:56:33.061Z,23.34
2022-08-19T04:00:36.873Z,23.34
2022-08-19T04:04:41.689Z,23.37
2022-08-19T04:08:48.027Z,23.40
2022-08-19T04:12:51.540Z,23.45
2022-08-19T04:16:55.457Z,23.47
2022-08-19T04:20:58.823Z,23.46
2022-08-19T04:25:03.389Z,23.45
2022-08-19T04:29:12.733Z,23.44
2022-08-19T04:33:17.907Z,23.44
2022-08-19T04:37:29.528Z,23.44
2022-08-19T04:41:57.658Z,23.45
2022-08-19T04:46:06.175Z,23.49
2022-08-19T04:50:12.811Z,23.52
2022-08-19T04:54:33.743Z,23.56
2022-08-19T04:58:43.402Z,23.62
2022-08-19T05:02:46.877Z,23.71
2022-08-19T05:06:50.748Z,23.79
2022-08-19T05:10:54.026Z,23.86
2022-08-19T05:14:59.016Z,23.93
2022-08-19T05:19:19.803Z,24.00
2022-08-19T05:23:23.118Z,24.10
2022-08-19T05:27:26.560Z,24.17
2022-08-19T05:31:31.230Z,24.22
2022-08-19T05:35:34.746Z,24.29
2022-08-19T05:39:39.758Z,24.36
2022-08-19T05:43:43.211Z,24.42
2022-08-19T05:47:48.051Z,24.46
2022-08-19T05:51:52.155Z,24.51
2022-08-19T05:55:55.298Z,24.51
2022-08-19T06:00:01.416Z,24.54
2022-08-19T06:04:16.264Z,24.55
2022-08-19T06:08:19.700Z,24.56
2022-08-19T06:12:31.670Z,24.62
2022-08-19T06:16:36.080Z,24.68
2022-08-19T06:20:55.515Z,24.73
2022-08-19T06:24:59.176Z,24.86
2022-08-19T06:29:02.809Z,24.96
2022-08-19T06:33:06.128Z,25.06
2022-08-19T06:37:10.953Z,25.11
2022-08-19T06:41:14.007Z,25.18
2022-08-19T06:45:17.145Z,25.26
2022-08-19T06:49:20.806Z,25.37
2022-08-19T06:53:25.724Z,25.47
2022-08-19T06:57:33.635Z,25.51
2022-08-19T07:01:38.549Z,25.59
2022-08-19T07:05:45.659Z,25.65
2022-08-19T07:10:00.888Z,25.71
2022-08-19T07:14:07.546Z,25.82
2022-08-19T07:18:23.972Z,25.92
2022-08-19T07:22:30.240Z,26.02
2022-08-19T07:26:40.855Z,26.15
2022-08-19T07:30:45.562Z,26.26
2022-08-19T07:34:48.692Z,26.26
2022-08-19T07:38:55.292Z,26.31
2022-08-19T07:43:00.130Z,26.38
2022-08-19T07:47:04.199Z,26.50
2022-08-19T07:51:09.665Z,26.57
2022-08-19T07:55:42.651Z,26.63
2022-08-19T07:59:37.693Z,26.73
2022-08-19T08:03:58.420Z,26.89
2022-08-19T08:08:18.976Z,27.09
2022-08-19T08:12:35.146Z,27.26
2022-08-19T08:16:47.067Z,27.52
2022-08-19T08:20:50.575Z,27.77
2022-08-19T08:24:53.970Z,27.88
2022-08-19T08:28:57.287Z,28.00
2022-08-19T08:33:02.690Z,28.12
2022-08-19T08:37:06.077Z,28.22
2022-08-19T08:41:20.805Z,28.38
2022-08-19T08:45:25.425Z,28.48
2022-08-19T08:49:36.032Z,28.62
2022-08-19T08:53:41.985Z,28.79
2022-08-19T08:57:55.783Z,28.98
2022-08-19T09:01:59.343Z,29.11
2022-08-19T09:06:06.297Z,29.23
2022-08-19T09:10:25.815Z,29.36
2022-08-19T09:14:51.077Z,29.46
2022-08-19T09:18:56.520Z,29.57
2022-08-19T09:23:01.131Z,29.77
2022-08-19T09:27:16.006Z,29.82
2022-08-19T09:31:30.519Z,29.92
2022-08-19T09:35:49.942Z,29.98
2022-08-19T09:39:58.979Z,30.14
2022-08-19T09:44:02.242Z,30.26
2022-08-19T09:48:07.221Z,30.38
2022-08-19T09:52:13.606Z,30.37
2022-08-19T09:56:20.110Z,30.46
2022-08-19T10:00:23.908Z,30.58
2022-08-19T10:04:47.289Z,30.71
2022-08-19T10:08:51.193Z,30.91
2022-08-19T10:12:56.998Z,31.02
2022-08-19T10:17:01.351Z,31.08
2022-08-19T10:21:25.552Z,31.11
2022-08-19T10:25:28.972Z,31.16
2022-08-19T10:29:36.894Z,31.24
2022-08-19T10:33:53.835Z,31.26
2022-08-19T10:38:02.085Z,31.27
2022-08-19T10:42:07.940Z,31.23
2022-08-19T10:46:16.472Z,31.15
2022-08-19T10:50:37.802Z,31.11
2022-08-19T10:54:58.650Z,31.12
2022-08-19T10:59:08.941Z,31.17
2022-08-19T11:03:13.653Z,31.09
2022-08-19T11:07:17.150Z,31.06
2022-08-19T11:11:20.314Z,30.96
2022-08-19T11:15:24.275Z,30.83
2022-08-19T11:19:28.962Z,30.59
2022-08-19T11:23:32.105Z,30.34
2022-08-19T11:27:35.675Z,30.10
2022-08-19T11:31:40.389Z,29.99
2022-08-19T11:35:45.308Z,29.91
2022-08-19T11:39:53.342Z,29.87
2022-08-19T11:43:57.592Z,29.95
2022-08-19T11:48:00.863Z,30.09
2022-08-19T11:52:05.705Z,30.17
2022-08-19T11:56:10.251Z,30.26
2022-08-19T12:00:14.826Z,30.39
2022-08-19T12:04:18.602Z,30.49
2022-08-19T12:08:25.096Z,30.57
2022-08-19T12:12:28.563Z,30.58
2022-08-19T12:16:33.773Z,30.57
2022-08-19T12:20:38.221Z,30.48
2022-08-19T12:24:42.986Z,30.45
2022-08-19T12:28:47.092Z,30.54
2022-08-19T12:32:52.098Z,30.70
2022-08-19T12:36:55.543Z,30.81
2022-08-19T12:41:00.522Z,30.93
2022-08-19T12:45:03.763Z,30.94
2022-08-19T12:49:19.944Z,30.88
2022-08-19T12:53:32.893Z,30.74
2022-08-19T12:57:39.994Z,30.62
2022-08-19T13:01:43.406Z,30.50
2022-08-19T13:05:46.817Z,30.48
2022-08-19T13:09:49.932Z,30.49
2022-08-19T13:13:56.301Z,30.51
2022-08-19T13:17:59.815Z,30.48
2022-08-19T13:22:02.939Z,30.45
2022-08-19T13:26:09.035Z,30.44
2022-08-19T13:30:34.827Z,30.39
2022-08-19T13:34:38.031Z,30.36
2022-08-19T13:38:41.157Z,30.31
2022-08-19T13:42:45.045Z,30.27
2022-08-19T13:46:54.290Z,30.23
2022-08-19T13:50:57.655Z,30.13
2022-08-19T13:55:00.945Z,29.93
2022-08-19T13:59:04.203Z,29.72
2022-08-19T14:03:09.486Z,29.64
2022-08-19T14:07:12.858Z,29.60
2022-08-19T14:11:17.010Z,29.56
2022-08-19T14:15:20.155Z,29.52
2022-08-19T14:19:24.845Z,29.47
2022-08-19T14:23:33.193Z,29.44
2022-08-19T14:27:36.581Z,29.48
2022-08-19T14:31:42.334Z,29.46
2022-08-19T14:35:46.927Z,29.45
2022-08-19T14:39:50.053Z,29.46
2022-08-19T14:43:54.330Z,29.46
2022-08-19T14:47:57.616Z,29.42
2022-08-19T14:52:01.998Z,29.37
2022-08-19T14:56:09.966Z,29.37
2022-08-19T15:00:14.717Z,29.40
2022-08-19T15:04:17.928Z,29.40
2022-08-19T15:08:25.813Z,29.43
2022-08-19T15:12:28.838Z,29.41
2022-08-19T15:16:32.065Z,29.42
2022-08-19T15:20:35.174Z,29.43
2022-08-19T15:24:47.861Z,29.43
2022-08-19T15:28:51.719Z,29.37
2022-08-19T15:32:55.856Z,29.38
2022-08-19T15:37:00.123Z,29.37
2022-08-19T15:41:20.133Z,29.34
2022-08-19T15:45:23.780Z,29.32
2022-08-19T15:49:27.005Z,29.27
2022-08-19T15:53:30.216Z,29.22
2022-08-19T15:57:51.802Z,29.14
2022-08-19T16:02:12.385Z,29.11
2022-08-19T16:06:28.347Z,29.05
2022-08-19T16:10:31.656Z,29.01
2022-08-19T16:14:38.150Z,29.01
2022-08-19T16:18:41.474Z,29.01
2022-08-19T16:22:44.693Z,29.03
2022-08-19T16:26:48.624Z,29.03
2022-08-19T16:30:53.028Z,28.97
2022-08-19T16:34:56.083Z,28.95
2022-08-19T16:38:59.156Z,28.89
2022-08-19T16:43:02.921Z,28.86
2022-08-19T16:47:07.828Z,28.87
2022-08-19T16:51:11.722Z,28.89
2022-08-19T16:55:15.520Z,28.86
2022-08-19T16:59:18.916Z,28.86
2022-08-19T17:03:35.684Z,28.86
2022-08-19T17:07:40.226Z,28.82
2022-08-19T17:11:43.189Z,28.73
2022-08-19T17:15:46.394Z,28.70
2022-08-19T17:19:50.787Z,28.63
2022-08-19T17:23:54.398Z,28.53
2022-08-19T17:27:57.446Z,28.47
2022-08-19T17:32:00.797Z,28.42
2022-08-19T17:36:06.837Z,28.40
2022-08-19T17:40:11.169Z,28.35
2022-08-19T17:44:14.600Z,28.31
2022-08-19T17:48:17.992Z,28.25
2022-08-19T17:52:22.565Z,28.22
2022-08-19T17:56:25.997Z,28.15
2022-08-19T18:00:29.035Z,28.10
2022-08-19T18:04:34.659Z,27.99
2022-08-19T18:08:39.981Z,27.93
2022-08-19T18:12:44.694Z,27.86
2022-08-19T18:16:48.025Z,27.77
2022-08-19T18:20:51.617Z,27.74
2022-08-19T18:24:57.882Z,27.69
2022-08-19T18:29:01.974Z,27.65
2022-08-19T18:33:15.073Z,27.64
2022-08-19T18:37:18.503Z,27.57
2022-08-19T18:41:40.634Z,27.53
2022-08-19T18:46:02.829Z,27.50
2022-08-19T18:50:09.120Z,27.46
2022-08-19T18:54:15.172Z,27.42
2022-08-19T18:58:24.379Z,27.38
2022-08-19T19:02:29.608Z,27.36
2022-08-19T19:06:40.191Z,27.37
2022-08-19T19:10:44.537Z,27.36
2022-08-19T19:14:50.668Z,27.35
2022-08-19T19:19:04.887Z,27.33
2022-08-19T19:24:24.591Z,27.29
2022-08-19T19:28:30.832Z,27.26
2022-08-19T19:32:39.269Z,27.21
2022-08-19T19:36:42.654Z,27.20
2022-08-19T19:40:45.997Z,27.16
2022-08-19T19:44:50.555Z,27.16
2022-08-19T19:48:59.842Z,27.15
2022-08-19T19:53:03.260Z,27.16
2022-08-19T19:57:06.718Z,27.15
2022-08-19T20:01:12.838Z,27.12
2022-08-19T20:05:34.088Z,27.00
2022-08-19T20:09:58.368Z,26.93
2022-08-19T20:14:03.514Z,26.83
2022-08-19T20:18:07.704Z,26.74
2022-08-19T20:22:14.171Z,26.64
2022-08-19T20:26:27.173Z,26.57
2022-08-19T20:30:36.123Z,26.50
2022-08-19T20:34:44.769Z,26.39
2022-08-19T20:38:49.907Z,26.31
2022-08-19T20:42:56.295Z,26.20
2022-08-19T20:47:03.379Z,26.05
2022-08-19T20:51:07.712Z,25.90
2022-08-19T20:55:13.959Z,25.84
2022-08-19T20:59:17.768Z,25.77
2022-08-19T21:03:24.169Z,25.69
2022-08-19T21:07:39.297Z,25.57
2022-08-19T21:11:44.241Z,25.47
2022-08-19T21:15:47.940Z,25.42
2022-08-19T21:19:51.095Z,25.41
2022-08-19T21:23:54.468Z,25.40
2022-08-19T21:27:59.203Z,25.40
2022-08-19T21:32:02.400Z,25.36
2022-08-19T21:36:06.460Z,25.33
2022-08-19T21:40:11.091Z,25.29
2022-08-19T21:44:15.725Z,25.26
2022-08-19T21:48:19.459Z,25.19
2022-08-19T21:52:23.406Z,25.10
2022-08-19T21:56:26.546Z,25.01
2022-08-19T22:00:32.332Z,24.87
2022-08-19T22:04:35.654Z,24.79
2022-08-19T22:08:38.875Z,24.71
2022-08-19T22:12:47.385Z,24.63
2022-08-19T22:16:56.420Z,24.39
2022-08-19T22:20:59.552Z,24.21
2022-08-19T22:25:07.771Z,24.13
2022-08-19T22:29:11.526Z,24.06
2022-08-19T22:33:22.378Z,23.91
2022-08-19T22:37:26.011Z,23.80
2022-08-19T22:41:29.142Z,23.77
2022-08-19T22:45:36.351Z,23.80
2022-08-19T22:49:40.769Z,23.74
2022-08-19T22:53:46.060Z,23.69
2022-08-19T22:57:49.323Z,23.67
2022-08-19T23:01:52.473Z,23.65
2022-08-19T23:05:57.243Z,23.65
2022-08-19T23:10:00.540Z,23.60
2022-08-19T23:14:05.029Z,23.60
2022-08-19T23:18:08.814Z,23.62
2022-08-19T23:22:17.124Z,23.63
2022-08-19T23:26:20.559Z,23.65
2022-08-19T23:30:28.381Z,23.65
2022-08-19T23:34:31.604Z,23.63
2022-08-19T23:38:36.796Z,23.57
2022-08-19T23:42:41.963Z,23.49
2022-08-19T23:46:55.267Z,23.43
2022-08-19T23:50:59.014Z,23.39
2022-08-19T23:55:06.257Z,23.40
2022-08-19T23:59:09.444Z,23.40
